sensor_id;sensor_type;location;lat;lon;timestamp;P1;durP1;ratioP1;P2;durP2;ratioP2
11267;SDS011;49397;47.474;9.416;2023-02-11T00:00:08;21.80;;;12.17;;
11267;SDS011;49397;47.474;9.416;2023-02-11T00:02:35;22.07;;;13.30;;
11267;SDS011;49397;47.474;9.416;2023-02-11T00:05:00;20.13;;;11.23;;
11267;SDS011;49397;47.474;9.416;2023-02-11T00:07:29;20.23;;;11.73;;
11267;SDS011;49397;47.474;9.416;2023-02-11T00:09:58;23.97;;;10.90;;
11267;SDS011;49397;47.474;9.416;2023-02-11T00:12:23;23.23;;;12.37;;
11267;SDS011;49397;47.474;9.416;2023-02-11T00:14:49;20.03;;;10.53;;
11267;SDS011;49397;47.474;9.416;2023-02-11T00:17:15;18.90;;;11.30;;
11267;SDS011;49397;47.474;9.416;2023-02-11T00:19:41;19.03;;;10.53;;
11267;SDS011;49397;47.474;9.416;2023-02-11T00:22:07;21.10;;;11.47;;
11267;SDS011;49397;47.474;9.416;2023-02-11T00:24:32;24.57;;;12.07;;
11267;SDS011;49397;47.474;9.416;2023-02-11T00:26:59;20.97;;;12.63;;
11267;SDS011;49397;47.474;9.416;2023-02-11T00:29:25;28.33;;;12.83;;
11267;SDS011;49397;47.474;9.416;2023-02-11T00:31:50;23.40;;;11.77;;
11267;SDS011;49397;47.474;9.416;2023-02-11T00:34:15;20.73;;;10.90;;
11267;SDS011;49397;47.474;9.416;2023-02-11T00:36:41;26.53;;;12.40;;
11267;SDS011;49397;47.474;9.416;2023-02-11T00:39:07;20.53;;;12.07;;
11267;SDS011;49397;47.474;9.416;2023-02-11T00:41:33;19.97;;;11.33;;
11267;SDS011;49397;47.474;9.416;2023-02-11T00:43:59;19.80;;;10.80;;
11267;SDS011;49397;47.474;9.416;2023-02-11T00:46:25;20.37;;;11.90;;
11267;SDS011;49397;47.474;9.416;2023-02-11T00:48:50;20.40;;;11.27;;
11267;SDS011;49397;47.474;9.416;2023-02-11T00:51:19;21.27;;;11.60;;
11267;SDS011;49397;47.474;9.416;2023-02-11T00:53:44;19.60;;;11.37;;
11267;SDS011;49397;47.474;9.416;2023-02-11T00:56:10;20.30;;;11.37;;
11267;SDS011;49397;47.474;9.416;2023-02-11T00:58:36;20.50;;;11.67;;
11267;SDS011;49397;47.474;9.416;2023-02-11T01:01:02;20.60;;;12.27;;
11267;SDS011;49397;47.474;9.416;2023-02-11T01:03:27;18.73;;;11.23;;
11267;SDS011;49397;47.474;9.416;2023-02-11T01:05:53;20.87;;;11.57;;
11267;SDS011;49397;47.474;9.416;2023-02-11T01:08:19;24.33;;;12.63;;
11267;SDS011;49397;47.474;9.416;2023-02-11T01:10:44;23.43;;;12.30;;
11267;SDS011;49397;47.474;9.416;2023-02-11T01:13:17;21.13;;;11.83;;
11267;SDS011;49397;47.474;9.416;2023-02-11T01:15:42;20.47;;;11.93;;
11267;SDS011;49397;47.474;9.416;2023-02-11T01:18:08;20.83;;;10.97;;
11267;SDS011;49397;47.474;9.416;2023-02-11T01:20:33;17.97;;;10.43;;
11267;SDS011;49397;47.474;9.416;2023-02-11T01:22:59;17.60;;;10.43;;
11267;SDS011;49397;47.474;9.416;2023-02-11T01:25:24;23.10;;;11.33;;
11267;SDS011;49397;47.474;9.416;2023-02-11T01:27:50;19.80;;;12.17;;
11267;SDS011;49397;47.474;9.416;2023-02-11T01:30:15;20.20;;;11.93;;
11267;SDS011;49397;47.474;9.416;2023-02-11T01:32:41;22.00;;;11.50;;
11267;SDS011;49397;47.474;9.416;2023-02-11T01:35:06;19.97;;;11.93;;
11267;SDS011;49397;47.474;9.416;2023-02-11T01:37:32;18.80;;;11.43;;
11267;SDS011;49397;47.474;9.416;2023-02-11T01:40:00;21.73;;;12.17;;
11267;SDS011;49397;47.474;9.416;2023-02-11T01:42:26;18.63;;;12.33;;
11267;SDS011;49397;47.474;9.416;2023-02-11T01:44:53;27.97;;;11.90;;
11267;SDS011;49397;47.474;9.416;2023-02-11T01:47:19;26.40;;;13.27;;
11267;SDS011;49397;47.474;9.416;2023-02-11T01:49:49;19.40;;;10.70;;
11267;SDS011;49397;47.474;9.416;2023-02-11T01:52:28;23.50;;;11.93;;
11267;SDS011;49397;47.474;9.416;2023-02-11T01:54:57;19.37;;;11.63;;
11267;SDS011;49397;47.474;9.416;2023-02-11T01:57:46;21.33;;;11.87;;
11267;SDS011;49397;47.474;9.416;2023-02-11T02:00:19;27.33;;;13.03;;
11267;SDS011;49397;47.474;9.416;2023-02-11T02:10:25;19.07;;;11.60;;
11267;SDS011;49397;47.474;9.416;2023-02-11T02:12:52;22.03;;;12.20;;
11267;SDS011;49397;47.474;9.416;2023-02-11T02:15:26;23.07;;;12.50;;
11267;SDS011;49397;47.474;9.416;2023-02-11T02:17:57;24.87;;;13.67;;
11267;SDS011;49397;47.474;9.416;2023-02-11T02:29:23;22.07;;;11.97;;
11267;SDS011;49397;47.474;9.416;2023-02-11T02:34:40;26.60;;;12.97;;
11267;SDS011;49397;47.474;9.416;2023-02-11T02:37:08;20.53;;;11.70;;
11267;SDS011;49397;47.474;9.416;2023-02-11T02:39:40;19.10;;;11.13;;
11267;SDS011;49397;47.474;9.416;2023-02-11T02:42:06;21.83;;;11.87;;
11267;SDS011;49397;47.474;9.416;2023-02-11T02:44:32;24.17;;;13.27;;
11267;SDS011;49397;47.474;9.416;2023-02-11T02:46:58;26.07;;;13.20;;
11267;SDS011;49397;47.474;9.416;2023-02-11T02:49:23;23.10;;;13.77;;
11267;SDS011;49397;47.474;9.416;2023-02-11T02:54:27;29.47;;;13.97;;
11267;SDS011;49397;47.474;9.416;2023-02-11T02:59:45;22.40;;;13.67;;
11267;SDS011;49397;47.474;9.416;2023-02-11T03:10:01;26.20;;;12.93;;
11267;SDS011;49397;47.474;9.416;2023-02-11T03:12:45;25.50;;;13.33;;
11267;SDS011;49397;47.474;9.416;2023-02-11T03:15:12;25.83;;;13.50;;
11267;SDS011;49397;47.474;9.416;2023-02-11T03:17:41;23.50;;;13.07;;
11267;SDS011;49397;47.474;9.416;2023-02-11T03:20:12;22.90;;;13.10;;
11267;SDS011;49397;47.474;9.416;2023-02-11T03:22:42;23.50;;;13.30;;
11267;SDS011;49397;47.474;9.416;2023-02-11T03:25:22;24.83;;;13.07;;
11267;SDS011;49397;47.474;9.416;2023-02-11T03:27:56;23.07;;;12.70;;
11267;SDS011;49397;47.474;9.416;2023-02-11T03:30:37;22.43;;;12.00;;
11267;SDS011;49397;47.474;9.416;2023-02-11T03:33:13;24.77;;;12.93;;
11267;SDS011;49397;47.474;9.416;2023-02-11T03:35:50;25.00;;;14.10;;
11267;SDS011;49397;47.474;9.416;2023-02-11T03:38:22;20.23;;;11.73;;
11267;SDS011;49397;47.474;9.416;2023-02-11T03:40:54;30.57;;;15.43;;
11267;SDS011;49397;47.474;9.416;2023-02-11T03:43:21;23.70;;;13.63;;
11267;SDS011;49397;47.474;9.416;2023-02-11T03:45:52;27.77;;;12.93;;
11267;SDS011;49397;47.474;9.416;2023-02-11T03:48:40;27.83;;;13.53;;
11267;SDS011;49397;47.474;9.416;2023-02-11T03:51:16;24.57;;;13.70;;
11267;SDS011;49397;47.474;9.416;2023-02-11T03:53:45;29.80;;;13.50;;
11267;SDS011;49397;47.474;9.416;2023-02-11T03:56:13;25.70;;;12.93;;
11267;SDS011;49397;47.474;9.416;2023-02-11T03:58:44;26.30;;;13.00;;
11267;SDS011;49397;47.474;9.416;2023-02-11T04:01:10;25.37;;;13.63;;
11267;SDS011;49397;47.474;9.416;2023-02-11T04:03:36;22.63;;;11.70;;
11267;SDS011;49397;47.474;9.416;2023-02-11T04:06:02;19.37;;;11.50;;
11267;SDS011;49397;47.474;9.416;2023-02-11T04:08:28;25.30;;;12.43;;
11267;SDS011;49397;47.474;9.416;2023-02-11T04:10:54;24.13;;;11.53;;
11267;SDS011;49397;47.474;9.416;2023-02-11T04:13:19;22.30;;;13.27;;
11267;SDS011;49397;47.474;9.416;2023-02-11T04:15:44;29.67;;;13.57;;
11267;SDS011;49397;47.474;9.416;2023-02-11T04:18:10;22.03;;;11.43;;
11267;SDS011;49397;47.474;9.416;2023-02-11T04:20:35;23.47;;;12.13;;
11267;SDS011;49397;47.474;9.416;2023-02-11T04:23:01;24.00;;;13.03;;
11267;SDS011;49397;47.474;9.416;2023-02-11T04:25:28;23.10;;;12.17;;
11267;SDS011;49397;47.474;9.416;2023-02-11T04:27:53;24.10;;;13.90;;
11267;SDS011;49397;47.474;9.416;2023-02-11T04:30:19;26.20;;;12.90;;
11267;SDS011;49397;47.474;9.416;2023-02-11T04:32:44;25.40;;;12.50;;
11267;SDS011;49397;47.474;9.416;2023-02-11T04:35:10;20.17;;;12.00;;
11267;SDS011;49397;47.474;9.416;2023-02-11T04:37:35;17.60;;;10.80;;
11267;SDS011;49397;47.474;9.416;2023-02-11T04:40:01;22.50;;;11.77;;
11267;SDS011;49397;47.474;9.416;2023-02-11T04:42:26;20.67;;;11.77;;
11267;SDS011;49397;47.474;9.416;2023-02-11T04:44:52;25.33;;;13.20;;
11267;SDS011;49397;47.474;9.416;2023-02-11T04:47:17;19.23;;;11.87;;
11267;SDS011;49397;47.474;9.416;2023-02-11T04:49:43;19.57;;;10.70;;
11267;SDS011;49397;47.474;9.416;2023-02-11T04:52:09;22.50;;;12.63;;
11267;SDS011;49397;47.474;9.416;2023-02-11T04:54:34;20.90;;;11.73;;
11267;SDS011;49397;47.474;9.416;2023-02-11T04:57:00;25.63;;;12.37;;
11267;SDS011;49397;47.474;9.416;2023-02-11T04:59:25;21.90;;;11.73;;
11267;SDS011;49397;47.474;9.416;2023-02-11T05:01:51;23.67;;;12.83;;
11267;SDS011;49397;47.474;9.416;2023-02-11T05:04:17;23.40;;;11.63;;
11267;SDS011;49397;47.474;9.416;2023-02-11T05:06:42;22.50;;;11.90;;
11267;SDS011;49397;47.474;9.416;2023-02-11T05:09:09;19.63;;;11.67;;
11267;SDS011;49397;47.474;9.416;2023-02-11T05:11:36;21.10;;;12.10;;
11267;SDS011;49397;47.474;9.416;2023-02-11T05:14:04;19.23;;;11.90;;
11267;SDS011;49397;47.474;9.416;2023-02-11T05:16:30;26.47;;;12.33;;
11267;SDS011;49397;47.474;9.416;2023-02-11T05:18:55;19.33;;;10.93;;
11267;SDS011;49397;47.474;9.416;2023-02-11T05:21:21;21.73;;;12.50;;
11267;SDS011;49397;47.474;9.416;2023-02-11T05:23:46;24.67;;;12.73;;
11267;SDS011;49397;47.474;9.416;2023-02-11T05:26:12;23.27;;;11.90;;
11267;SDS011;49397;47.474;9.416;2023-02-11T05:28:39;25.83;;;12.80;;
11267;SDS011;49397;47.474;9.416;2023-02-11T05:31:05;20.03;;;11.73;;
11267;SDS011;49397;47.474;9.416;2023-02-11T05:33:30;21.00;;;11.87;;
11267;SDS011;49397;47.474;9.416;2023-02-11T05:36:03;19.60;;;11.47;;
11267;SDS011;49397;47.474;9.416;2023-02-11T05:38:30;21.00;;;11.50;;
11267;SDS011;49397;47.474;9.416;2023-02-11T05:40:56;20.87;;;12.23;;
11267;SDS011;49397;47.474;9.416;2023-02-11T05:43:21;21.77;;;12.50;;
11267;SDS011;49397;47.474;9.416;2023-02-11T05:45:47;21.30;;;11.70;;
11267;SDS011;49397;47.474;9.416;2023-02-11T05:48:13;20.90;;;11.03;;
11267;SDS011;49397;47.474;9.416;2023-02-11T05:50:38;22.67;;;12.47;;
11267;SDS011;49397;47.474;9.416;2023-02-11T05:53:04;23.37;;;13.77;;
11267;SDS011;49397;47.474;9.416;2023-02-11T05:55:31;21.00;;;11.23;;
11267;SDS011;49397;47.474;9.416;2023-02-11T05:57:56;22.20;;;12.00;;
11267;SDS011;49397;47.474;9.416;2023-02-11T06:00:22;22.47;;;13.63;;
11267;SDS011;49397;47.474;9.416;2023-02-11T06:02:48;24.97;;;13.87;;
11267;SDS011;49397;47.474;9.416;2023-02-11T06:05:13;23.03;;;13.17;;
11267;SDS011;49397;47.474;9.416;2023-02-11T06:07:39;25.97;;;13.60;;
11267;SDS011;49397;47.474;9.416;2023-02-11T06:10:04;24.30;;;13.27;;
11267;SDS011;49397;47.474;9.416;2023-02-11T06:12:31;23.47;;;12.93;;
11267;SDS011;49397;47.474;9.416;2023-02-11T06:14:56;20.40;;;12.17;;
11267;SDS011;49397;47.474;9.416;2023-02-11T06:17:22;23.87;;;13.47;;
11267;SDS011;49397;47.474;9.416;2023-02-11T06:19:47;25.13;;;11.73;;
11267;SDS011;49397;47.474;9.416;2023-02-11T06:22:13;26.73;;;12.77;;
11267;SDS011;49397;47.474;9.416;2023-02-11T06:24:39;27.07;;;14.07;;
11267;SDS011;49397;47.474;9.416;2023-02-11T06:27:05;25.93;;;14.40;;
11267;SDS011;49397;47.474;9.416;2023-02-11T06:29:30;25.97;;;13.20;;
11267;SDS011;49397;47.474;9.416;2023-02-11T06:31:56;27.63;;;12.97;;
11267;SDS011;49397;47.474;9.416;2023-02-11T06:34:21;23.00;;;12.90;;
11267;SDS011;49397;47.474;9.416;2023-02-11T06:36:46;22.73;;;13.23;;
11267;SDS011;49397;47.474;9.416;2023-02-11T06:39:12;20.90;;;11.83;;
11267;SDS011;49397;47.474;9.416;2023-02-11T06:41:38;23.90;;;13.40;;
11267;SDS011;49397;47.474;9.416;2023-02-11T06:44:03;25.43;;;12.63;;
11267;SDS011;49397;47.474;9.416;2023-02-11T06:46:29;24.63;;;14.00;;
11267;SDS011;49397;47.474;9.416;2023-02-11T06:48:55;22.70;;;13.00;;
11267;SDS011;49397;47.474;9.416;2023-02-11T06:51:20;22.07;;;12.57;;
11267;SDS011;49397;47.474;9.416;2023-02-11T06:53:46;25.27;;;13.23;;
11267;SDS011;49397;47.474;9.416;2023-02-11T06:56:19;36.73;;;15.90;;
11267;SDS011;49397;47.474;9.416;2023-02-11T06:58:46;40.93;;;19.47;;
11267;SDS011;49397;47.474;9.416;2023-02-11T07:01:13;29.87;;;16.60;;
11267;SDS011;49397;47.474;9.416;2023-02-11T07:03:40;27.73;;;14.23;;
11267;SDS011;49397;47.474;9.416;2023-02-11T07:06:07;37.33;;;17.90;;
11267;SDS011;49397;47.474;9.416;2023-02-11T07:08:36;27.80;;;16.47;;
11267;SDS011;49397;47.474;9.416;2023-02-11T07:11:12;34.00;;;14.77;;
11267;SDS011;49397;47.474;9.416;2023-02-11T07:13:39;27.57;;;16.53;;
11267;SDS011;49397;47.474;9.416;2023-02-11T07:16:05;33.10;;;15.10;;
11267;SDS011;49397;47.474;9.416;2023-02-11T07:18:32;27.57;;;15.97;;
11267;SDS011;49397;47.474;9.416;2023-02-11T07:20:58;30.57;;;17.03;;
11267;SDS011;49397;47.474;9.416;2023-02-11T07:23:23;31.80;;;15.27;;
11267;SDS011;49397;47.474;9.416;2023-02-11T07:25:48;34.37;;;16.43;;
11267;SDS011;49397;47.474;9.416;2023-02-11T07:28:14;27.50;;;15.20;;
11267;SDS011;49397;47.474;9.416;2023-02-11T07:30:39;31.80;;;16.20;;
11267;SDS011;49397;47.474;9.416;2023-02-11T07:33:05;29.77;;;15.93;;
11267;SDS011;49397;47.474;9.416;2023-02-11T07:35:30;31.50;;;15.17;;
11267;SDS011;49397;47.474;9.416;2023-02-11T07:37:56;26.67;;;15.20;;
11267;SDS011;49397;47.474;9.416;2023-02-11T07:40:21;30.57;;;14.87;;
11267;SDS011;49397;47.474;9.416;2023-02-11T07:42:47;33.03;;;17.00;;
11267;SDS011;49397;47.474;9.416;2023-02-11T07:45:12;25.00;;;14.47;;
11267;SDS011;49397;47.474;9.416;2023-02-11T07:47:38;29.97;;;16.27;;
11267;SDS011;49397;47.474;9.416;2023-02-11T07:50:04;25.70;;;15.20;;
11267;SDS011;49397;47.474;9.416;2023-02-11T07:52:30;32.07;;;16.07;;
11267;SDS011;49397;47.474;9.416;2023-02-11T07:54:56;35.40;;;18.07;;
11267;SDS011;49397;47.474;9.416;2023-02-11T07:57:22;33.90;;;18.27;;
11267;SDS011;49397;47.474;9.416;2023-02-11T07:59:47;31.23;;;16.83;;
11267;SDS011;49397;47.474;9.416;2023-02-11T08:02:13;29.23;;;15.00;;
11267;SDS011;49397;47.474;9.416;2023-02-11T08:04:38;29.93;;;15.53;;
11267;SDS011;49397;47.474;9.416;2023-02-11T08:07:04;28.07;;;15.83;;
11267;SDS011;49397;47.474;9.416;2023-02-11T08:09:31;35.17;;;18.40;;
11267;SDS011;49397;47.474;9.416;2023-02-11T08:11:56;38.00;;;18.67;;
11267;SDS011;49397;47.474;9.416;2023-02-11T08:14:22;38.87;;;20.87;;
11267;SDS011;49397;47.474;9.416;2023-02-11T08:16:49;34.40;;;19.80;;
11267;SDS011;49397;47.474;9.416;2023-02-11T08:19:15;40.70;;;20.87;;
11267;SDS011;49397;47.474;9.416;2023-02-11T08:21:41;32.63;;;18.63;;
11267;SDS011;49397;47.474;9.416;2023-02-11T08:24:07;36.90;;;19.10;;
11267;SDS011;49397;47.474;9.416;2023-02-11T08:26:34;35.27;;;18.37;;
11267;SDS011;49397;47.474;9.416;2023-02-11T08:29:01;33.40;;;18.87;;
11267;SDS011;49397;47.474;9.416;2023-02-11T08:31:32;33.30;;;18.87;;
11267;SDS011;49397;47.474;9.416;2023-02-11T08:33:59;38.37;;;20.10;;
11267;SDS011;49397;47.474;9.416;2023-02-11T08:36:33;33.57;;;19.77;;
11267;SDS011;49397;47.474;9.416;2023-02-11T08:39:01;35.50;;;19.53;;
11267;SDS011;49397;47.474;9.416;2023-02-11T08:41:32;34.13;;;20.53;;
11267;SDS011;49397;47.474;9.416;2023-02-11T08:43:58;38.77;;;21.30;;
11267;SDS011;49397;47.474;9.416;2023-02-11T08:46:24;36.10;;;20.00;;
11267;SDS011;49397;47.474;9.416;2023-02-11T08:48:50;30.90;;;18.67;;
11267;SDS011;49397;47.474;9.416;2023-02-11T08:51:21;31.77;;;19.53;;
11267;SDS011;49397;47.474;9.416;2023-02-11T08:53:57;31.53;;;18.50;;
11267;SDS011;49397;47.474;9.416;2023-02-11T08:56:23;32.47;;;19.80;;
11267;SDS011;49397;47.474;9.416;2023-02-11T08:58:49;31.10;;;19.63;;
11267;SDS011;49397;47.474;9.416;2023-02-11T09:01:16;29.70;;;18.40;;
11267;SDS011;49397;47.474;9.416;2023-02-11T09:03:42;30.07;;;18.03;;
11267;SDS011;49397;47.474;9.416;2023-02-11T09:06:09;30.43;;;18.20;;
11267;SDS011;49397;47.474;9.416;2023-02-11T09:08:36;28.87;;;18.43;;
11267;SDS011;49397;47.474;9.416;2023-02-11T09:11:04;32.27;;;19.23;;
11267;SDS011;49397;47.474;9.416;2023-02-11T09:13:30;30.37;;;17.93;;
11267;SDS011;49397;47.474;9.416;2023-02-11T09:15:57;31.30;;;19.30;;
11267;SDS011;49397;47.474;9.416;2023-02-11T09:18:24;33.57;;;17.33;;
11267;SDS011;49397;47.474;9.416;2023-02-11T09:20:50;28.70;;;17.60;;
11267;SDS011;49397;47.474;9.416;2023-02-11T09:23:15;33.40;;;17.80;;
11267;SDS011;49397;47.474;9.416;2023-02-11T09:25:41;35.57;;;19.10;;
11267;SDS011;49397;47.474;9.416;2023-02-11T09:28:07;33.27;;;18.87;;
11267;SDS011;49397;47.474;9.416;2023-02-11T09:30:35;33.77;;;19.70;;
11267;SDS011;49397;47.474;9.416;2023-02-11T09:33:02;32.37;;;18.23;;
11267;SDS011;49397;47.474;9.416;2023-02-11T09:35:27;32.57;;;17.97;;
11267;SDS011;49397;47.474;9.416;2023-02-11T09:37:53;29.70;;;17.93;;
11267;SDS011;49397;47.474;9.416;2023-02-11T09:40:19;30.07;;;17.37;;
11267;SDS011;49397;47.474;9.416;2023-02-11T09:42:52;31.20;;;18.13;;
11267;SDS011;49397;47.474;9.416;2023-02-11T09:45:28;27.13;;;18.00;;
11267;SDS011;49397;47.474;9.416;2023-02-11T09:47:59;30.77;;;18.87;;
11267;SDS011;49397;47.474;9.416;2023-02-11T09:50:46;32.53;;;16.47;;
11267;SDS011;49397;47.474;9.416;2023-02-11T09:53:25;31.37;;;17.37;;
11267;SDS011;49397;47.474;9.416;2023-02-11T09:55:53;29.50;;;18.17;;
11267;SDS011;49397;47.474;9.416;2023-02-11T09:58:30;32.27;;;18.63;;
11267;SDS011;49397;47.474;9.416;2023-02-11T10:03:40;34.43;;;19.27;;
11267;SDS011;49397;47.474;9.416;2023-02-11T10:08:51;30.43;;;17.70;;
11267;SDS011;49397;47.474;9.416;2023-02-11T10:17:01;32.00;;;18.23;;
11267;SDS011;49397;47.474;9.416;2023-02-11T10:22:17;33.40;;;18.97;;
11267;SDS011;49397;47.474;9.416;2023-02-11T10:24:55;35.67;;;18.80;;
11267;SDS011;49397;47.474;9.416;2023-02-11T10:27:32;30.37;;;18.13;;
11267;SDS011;49397;47.474;9.416;2023-02-11T10:30:03;35.30;;;20.20;;
11267;SDS011;49397;47.474;9.416;2023-02-11T10:35:47;35.10;;;20.03;;
11267;SDS011;49397;47.474;9.416;2023-02-11T10:38:13;34.27;;;20.40;;
11267;SDS011;49397;47.474;9.416;2023-02-11T10:40:39;32.87;;;19.90;;
11267;SDS011;49397;47.474;9.416;2023-02-11T10:43:06;34.80;;;20.53;;
11267;SDS011;49397;47.474;9.416;2023-02-11T10:45:38;37.40;;;20.63;;
11267;SDS011;49397;47.474;9.416;2023-02-11T10:56:37;33.30;;;18.97;;
11267;SDS011;49397;47.474;9.416;2023-02-11T10:59:08;32.77;;;19.50;;
11267;SDS011;49397;47.474;9.416;2023-02-11T11:01:45;30.53;;;18.93;;
11267;SDS011;49397;47.474;9.416;2023-02-11T11:04:32;34.93;;;19.37;;
11267;SDS011;49397;47.474;9.416;2023-02-11T11:09:57;29.07;;;16.90;;
11267;SDS011;49397;47.474;9.416;2023-02-11T11:12:46;32.50;;;19.53;;
11267;SDS011;49397;47.474;9.416;2023-02-11T11:15:14;32.33;;;18.97;;
11267;SDS011;49397;47.474;9.416;2023-02-11T11:21:02;32.90;;;18.87;;
11267;SDS011;49397;47.474;9.416;2023-02-11T11:23:29;33.90;;;19.03;;
11267;SDS011;49397;47.474;9.416;2023-02-11T11:25:59;30.83;;;19.20;;
11267;SDS011;49397;47.474;9.416;2023-02-11T11:28:31;30.83;;;18.33;;
11267;SDS011;49397;47.474;9.416;2023-02-11T11:31:13;32.50;;;19.33;;
11267;SDS011;49397;47.474;9.416;2023-02-11T11:33:43;29.90;;;18.73;;
11267;SDS011;49397;47.474;9.416;2023-02-11T11:36:12;32.40;;;19.53;;
11267;SDS011;49397;47.474;9.416;2023-02-11T11:38:43;30.13;;;19.03;;
11267;SDS011;49397;47.474;9.416;2023-02-11T11:41:23;31.87;;;19.40;;
11267;SDS011;49397;47.474;9.416;2023-02-11T11:43:58;32.50;;;19.83;;
11267;SDS011;49397;47.474;9.416;2023-02-11T11:46:37;33.03;;;20.07;;
11267;SDS011;49397;47.474;9.416;2023-02-11T11:55:02;32.27;;;19.97;;
11267;SDS011;49397;47.474;9.416;2023-02-11T11:57:37;37.10;;;19.80;;
11267;SDS011;49397;47.474;9.416;2023-02-11T12:00:03;31.40;;;17.70;;
11267;SDS011;49397;47.474;9.416;2023-02-11T12:24:52;37.03;;;20.00;;
11267;SDS011;49397;47.474;9.416;2023-02-11T12:33:15;34.80;;;21.10;;
11267;SDS011;49397;47.474;9.416;2023-02-11T12:35:52;31.17;;;19.60;;
11267;SDS011;49397;47.474;9.416;2023-02-11T12:39:09;29.83;;;18.17;;
11267;SDS011;49397;47.474;9.416;2023-02-11T12:41:27;27.53;;;18.67;;
11267;SDS011;49397;47.474;9.416;2023-02-11T12:50:29;33.67;;;20.23;;
11267;SDS011;49397;47.474;9.416;2023-02-11T12:55:35;30.17;;;19.00;;
11267;SDS011;49397;47.474;9.416;2023-02-11T12:58:04;32.37;;;19.97;;
11267;SDS011;49397;47.474;9.416;2023-02-11T13:00:54;31.73;;;20.13;;
11267;SDS011;49397;47.474;9.416;2023-02-11T13:03:44;29.90;;;18.63;;
11267;SDS011;49397;47.474;9.416;2023-02-11T13:06:16;31.40;;;18.20;;
11267;SDS011;49397;47.474;9.416;2023-02-11T13:08:53;30.17;;;19.23;;
11267;SDS011;49397;47.474;9.416;2023-02-11T13:11:36;34.70;;;19.53;;
11267;SDS011;49397;47.474;9.416;2023-02-11T13:16:40;33.10;;;20.17;;
11267;SDS011;49397;47.474;9.416;2023-02-11T13:30:07;32.03;;;20.37;;
11267;SDS011;49397;47.474;9.416;2023-02-11T13:37:58;35.83;;;20.63;;
11267;SDS011;49397;47.474;9.416;2023-02-11T13:40:26;33.57;;;20.47;;
11267;SDS011;49397;47.474;9.416;2023-02-11T13:42:56;30.00;;;19.20;;
11267;SDS011;49397;47.474;9.416;2023-02-11T13:45:33;34.93;;;21.13;;
11267;SDS011;49397;47.474;9.416;2023-02-11T13:48:14;32.40;;;20.17;;
11267;SDS011;49397;47.474;9.416;2023-02-11T13:50:45;32.63;;;19.37;;
11267;SDS011;49397;47.474;9.416;2023-02-11T13:53:13;29.00;;;18.83;;
11267;SDS011;49397;47.474;9.416;2023-02-11T13:55:41;31.70;;;19.37;;
11267;SDS011;49397;47.474;9.416;2023-02-11T14:04:04;32.07;;;19.97;;
11267;SDS011;49397;47.474;9.416;2023-02-11T14:14:19;34.67;;;19.87;;
11267;SDS011;49397;47.474;9.416;2023-02-11T14:19:32;34.70;;;19.50;;
11267;SDS011;49397;47.474;9.416;2023-02-11T14:22:28;29.30;;;18.73;;
11267;SDS011;49397;47.474;9.416;2023-02-11T14:25:11;30.63;;;19.20;;
11267;SDS011;49397;47.474;9.416;2023-02-11T14:27:43;28.90;;;17.07;;
11267;SDS011;49397;47.474;9.416;2023-02-11T14:33:26;34.97;;;18.00;;
11267;SDS011;49397;47.474;9.416;2023-02-11T14:36:06;30.67;;;18.40;;
11267;SDS011;49397;47.474;9.416;2023-02-11T14:41:39;33.13;;;19.20;;
11267;SDS011;49397;47.474;9.416;2023-02-11T14:44:12;29.40;;;17.80;;
11267;SDS011;49397;47.474;9.416;2023-02-11T14:46:48;43.10;;;18.17;;
11267;SDS011;49397;47.474;9.416;2023-02-11T14:52:40;33.30;;;17.33;;
11267;SDS011;49397;47.474;9.416;2023-02-11T14:54:53;27.80;;;17.20;;
11267;SDS011;49397;47.474;9.416;2023-02-11T14:57:29;29.53;;;16.77;;
11267;SDS011;49397;47.474;9.416;2023-02-11T14:59:56;28.13;;;17.60;;
11267;SDS011;49397;47.474;9.416;2023-02-11T15:02:33;27.80;;;16.57;;
11267;SDS011;49397;47.474;9.416;2023-02-11T15:07:47;32.20;;;19.10;;
11267;SDS011;49397;47.474;9.416;2023-02-11T15:10:30;27.27;;;17.20;;
11267;SDS011;49397;47.474;9.416;2023-02-11T15:13:02;30.53;;;17.50;;
11267;SDS011;49397;47.474;9.416;2023-02-11T15:15:29;27.53;;;17.30;;
11267;SDS011;49397;47.474;9.416;2023-02-11T15:17:57;28.23;;;17.30;;
11267;SDS011;49397;47.474;9.416;2023-02-11T15:20:26;31.00;;;17.80;;
11267;SDS011;49397;47.474;9.416;2023-02-11T15:23:00;30.83;;;19.17;;
11267;SDS011;49397;47.474;9.416;2023-02-11T15:25:28;29.80;;;18.77;;
11267;SDS011;49397;47.474;9.416;2023-02-11T15:27:55;28.83;;;16.60;;
11267;SDS011;49397;47.474;9.416;2023-02-11T15:32:47;29.03;;;18.13;;
11267;SDS011;49397;47.474;9.416;2023-02-11T15:35:22;31.07;;;17.33;;
11267;SDS011;49397;47.474;9.416;2023-02-11T15:37:49;27.27;;;17.70;;
11267;SDS011;49397;47.474;9.416;2023-02-11T15:40:16;25.23;;;16.37;;
11267;SDS011;49397;47.474;9.416;2023-02-11T15:45:24;28.80;;;17.40;;
11267;SDS011;49397;47.474;9.416;2023-02-11T15:48:18;29.70;;;16.57;;
11267;SDS011;49397;47.474;9.416;2023-02-11T15:50:55;31.70;;;17.23;;
11267;SDS011;49397;47.474;9.416;2023-02-11T15:53:41;30.73;;;17.60;;
11267;SDS011;49397;47.474;9.416;2023-02-11T15:56:12;29.43;;;16.57;;
11267;SDS011;49397;47.474;9.416;2023-02-11T15:58:44;31.47;;;16.63;;
11267;SDS011;49397;47.474;9.416;2023-02-11T16:01:13;27.20;;;16.73;;
11267;SDS011;49397;47.474;9.416;2023-02-11T16:03:39;26.53;;;18.07;;
11267;SDS011;49397;47.474;9.416;2023-02-11T16:08:40;31.43;;;17.23;;
11267;SDS011;49397;47.474;9.416;2023-02-11T16:17:04;39.00;;;18.20;;
11267;SDS011;49397;47.474;9.416;2023-02-11T16:19:46;26.97;;;16.73;;
11267;SDS011;49397;47.474;9.416;2023-02-11T16:22:19;31.87;;;20.23;;
11267;SDS011;49397;47.474;9.416;2023-02-11T16:24:48;26.50;;;18.03;;
11267;SDS011;49397;47.474;9.416;2023-02-11T16:27:18;37.90;;;19.50;;
11267;SDS011;49397;47.474;9.416;2023-02-11T16:29:47;35.77;;;21.17;;
11267;SDS011;49397;47.474;9.416;2023-02-11T16:32:18;37.60;;;21.77;;
11267;SDS011;49397;47.474;9.416;2023-02-11T16:34:46;39.37;;;22.30;;
11267;SDS011;49397;47.474;9.416;2023-02-11T16:37:12;34.33;;;20.03;;
11267;SDS011;49397;47.474;9.416;2023-02-11T16:39:38;39.30;;;21.23;;
11267;SDS011;49397;47.474;9.416;2023-02-11T16:42:04;41.13;;;22.23;;
11267;SDS011;49397;47.474;9.416;2023-02-11T16:44:31;40.67;;;22.93;;
11267;SDS011;49397;47.474;9.416;2023-02-11T16:46:57;36.07;;;20.77;;
11267;SDS011;49397;47.474;9.416;2023-02-11T16:49:28;44.87;;;24.87;;
11267;SDS011;49397;47.474;9.416;2023-02-11T16:51:59;37.70;;;21.13;;
11267;SDS011;49397;47.474;9.416;2023-02-11T16:54:27;35.77;;;22.17;;
11267;SDS011;49397;47.474;9.416;2023-02-11T16:56:53;39.77;;;22.93;;
11267;SDS011;49397;47.474;9.416;2023-02-11T16:59:19;40.77;;;24.37;;
11267;SDS011;49397;47.474;9.416;2023-02-11T17:01:44;44.40;;;23.87;;
11267;SDS011;49397;47.474;9.416;2023-02-11T17:04:16;34.03;;;21.23;;
11267;SDS011;49397;47.474;9.416;2023-02-11T17:06:42;41.00;;;22.97;;
11267;SDS011;49397;47.474;9.416;2023-02-11T17:09:10;41.67;;;24.33;;
11267;SDS011;49397;47.474;9.416;2023-02-11T17:11:41;36.47;;;18.70;;
11267;SDS011;49397;47.474;9.416;2023-02-11T17:14:07;31.07;;;18.23;;
11267;SDS011;49397;47.474;9.416;2023-02-11T17:16:32;38.13;;;18.70;;
11267;SDS011;49397;47.474;9.416;2023-02-11T17:18:58;33.23;;;18.20;;